Mary Ann — WCY5683 — position and weather

sailwx.info

Track history (hours):
 
Tides and Currents Weather Stations Pressure Air Temp Water Temp Dewpoint Dewpoint Depression Visibility Wind Speed Wind Dir Waves Ship Positions

Mary Ann

Owner: GETZ, TIMOTHY M, SEAVILLE, NJ. More information available from US FCC via Universal Licensing System and Coast Guard Vessel Documentation Center.

Last reported at 2014-Nov-12 12:32 UTC. Time now 2014-Nov-24 02:56 UTC.
Position N 38°17' W 073°24'.
Warning: this ship's position is 11 days out of date.

Length 22 m.

Type: Fishing. MMSI: 338382000.

Date/timePositionNaut miles runAvg speedWind from/ knotsBaromVisibWave heightAir tempDewpointWater temp
2014-Nov-12 12:32N 38°17' W 073°24'5 4.7
2014-Nov-12 11:33N 38°19' W 073°19'5 1.2
2014-Nov-12 07:06N 38°24' W 073°17'0 0.3
2014-Nov-12 06:20N 38°24' W 073°17'0 0.3
2014-Nov-12 05:04N 38°24' W 073°16'0 0.4
2014-Nov-12 04:33N 38°24' W 073°16'0 0.4
2014-Nov-12 03:33N 38°23' W 073°15'1 0.5
2014-Nov-12 02:27N 38°23' W 073°15'1 0.6
2014-Nov-12 01:33N 38°23' W 073°14'9 0.7
2014-Nov-11 13:09N 38°18' W 073°24'  
2014-Nov-05 10:33N 38°31' W 073°05'2 0.5
2014-Nov-05 07:21N 38°32' W 073°04'1 0.8
2014-Nov-05 06:33N 38°31' W 073°04'1 0.9
2014-Nov-05 05:04N 38°31' W 073°06'1 1.0
2014-Nov-05 04:32N 38°31' W 073°07'1 0.9
2014-Nov-05 03:33N 38°30' W 073°08'2 1.1
2014-Nov-05 01:19N 38°29' W 073°10'6 7.9
2014-Nov-05 00:33N 38°25' W 073°16'8 7.6
2014-Nov-04 23:33N 38°20' W 073°23'8 7.8
2014-Nov-04 22:31N 38°14' W 073°30'9 6.1
2014-Nov-04 21:04N 38°11' W 073°41'  
Track history (hours):
 
Tides and Currents Weather Stations Pressure Air Temp Water Temp Dewpoint Dewpoint Depression Visibility Wind Speed Wind Dir Waves Ship Positions

Mary Ann

Owner: GETZ, TIMOTHY M, SEAVILLE, NJ. More information available from US FCC via Universal Licensing System and Coast Guard Vessel Documentation Center.

Last reported at 2014-Nov-12 12:32 UTC. Time now 2014-Nov-24 02:56 UTC.
Position N 38°17' W 073°24'.
Warning: this ship's position is 11 days out of date.

Length 22 m.

Type: Fishing. MMSI: 338382000.

Date/timePositionNaut miles runAvg speedWind from/ knotsBaromVisibWave heightAir tempDewpointWater temp
2014-Nov-12 12:32N 38°17' W 073°24'5 4.7
2014-Nov-12 11:33N 38°19' W 073°19'5 1.2
2014-Nov-12 07:06N 38°24' W 073°17'0 0.3
2014-Nov-12 06:20N 38°24' W 073°17'0 0.3
2014-Nov-12 05:04N 38°24' W 073°16'0 0.4
2014-Nov-12 04:33N 38°24' W 073°16'0 0.4
2014-Nov-12 03:33N 38°23' W 073°15'1 0.5
2014-Nov-12 02:27N 38°23' W 073°15'1 0.6
2014-Nov-12 01:33N 38°23' W 073°14'9 0.7
2014-Nov-11 13:09N 38°18' W 073°24'  
2014-Nov-05 10:33N 38°31' W 073°05'2 0.5
2014-Nov-05 07:21N 38°32' W 073°04'1 0.8
2014-Nov-05 06:33N 38°31' W 073°04'1 0.9
2014-Nov-05 05:04N 38°31' W 073°06'1 1.0
2014-Nov-05 04:32N 38°31' W 073°07'1 0.9
2014-Nov-05 03:33N 38°30' W 073°08'2 1.1
2014-Nov-05 01:19N 38°29' W 073°10'6 7.9
2014-Nov-05 00:33N 38°25' W 073°16'8 7.6
2014-Nov-04 23:33N 38°20' W 073°23'8 7.8
2014-Nov-04 22:31N 38°14' W 073°30'9 6.1
2014-Nov-04 21:04N 38°11' W 073°41'  

Dump ship's entire track history